Terminal Aerodrome Forecast
Issued by NWS

Home | Current Version | Previous Version | Text Only | Print | Product List | Glossary On
Versions: 1 2 3 4 5 6 7 8 9 10 11 12 13 14 15 16 17 18 19 20
047
FTPA31 PHFO 281400 AAA
TAFHTO
TAF AMD
PHTO 281400Z 2814/2912 30004KT 6SM SHRA FEW015 BKN035 OVC050
     FM282100 05007KT P6SM -SHRA FEW030 BKN045
     FM290600 27004KT P6SM VCSH BKN025 OVC040=

USA.gov is the U.S. government's official web portal to all federal, state and local government web resources and services.